createdAt,value
2022-10-02T00:02:30.511Z,97122.22
2022-10-02T00:05:21.452Z,97125.47
2022-10-02T00:08:03.327Z,97133.19
2022-10-02T00:10:48.417Z,97124.09
2022-10-02T00:13:26.487Z,97130.22
2022-10-02T00:15:54.633Z,97128.66
2022-10-02T00:18:29.392Z,97136.47
2022-10-02T00:21:15.378Z,97136.59
2022-10-02T00:23:56.203Z,97134.56
2022-10-02T00:26:31.145Z,97135.38
2022-10-02T00:29:18.139Z,97135.16
2022-10-02T00:32:01.196Z,97125.41
2022-10-02T00:34:58.445Z,97123.75
2022-10-02T00:37:46.250Z,97137.91
2022-10-02T00:40:48.142Z,97139.13
2022-10-02T00:43:44.872Z,97119.03
2022-10-02T00:46:40.502Z,97107.69
2022-10-02T00:49:15.777Z,97109.19
2022-10-02T00:51:56.634Z,97117.13
2022-10-02T00:54:26.060Z,97123.84
2022-10-02T00:56:55.675Z,97131.47
2022-10-02T00:59:51.410Z,97122.56
2022-10-02T01:02:23.951Z,97135.66
2022-10-02T01:04:50.680Z,97127.97
2022-10-02T01:07:17.358Z,97131.34
2022-10-02T01:09:44.829Z,97118.97
2022-10-02T01:12:12.872Z,97135.66
2022-10-02T01:14:40.721Z,97131.34
2022-10-02T01:17:30.666Z,97130.72
2022-10-02T01:20:01.250Z,97123.75
2022-10-02T01:22:27.858Z,97126.50
2022-10-02T01:24:55.793Z,97127.59
2022-10-02T01:27:24.359Z,97128.75
2022-10-02T01:29:56.819Z,97130.56
2022-10-02T01:32:26.035Z,97130.63
2022-10-02T01:34:54.105Z,97127.91
2022-10-02T01:37:22.746Z,97126.19
2022-10-02T01:39:49.883Z,97133.28
2022-10-02T01:42:17.343Z,97127.16
2022-10-02T01:44:45.706Z,97130.75
2022-10-02T01:47:17.425Z,97127.38
2022-10-02T01:50:00.942Z,97139.31
2022-10-02T01:52:33.325Z,97149.97
2022-10-02T01:55:18.384Z,97145.66
2022-10-02T01:58:09.727Z,97154.41
2022-10-02T02:01:07.476Z,97153.47
2022-10-02T02:03:44.994Z,97156.00
2022-10-02T02:06:26.098Z,97161.22
2022-10-02T02:09:06.102Z,97148.94
2022-10-02T02:11:35.596Z,97142.03
2022-10-02T02:14:04.898Z,97153.47
2022-10-02T02:16:43.748Z,97153.56
2022-10-02T02:19:22.490Z,97153.69
2022-10-02T02:21:54.055Z,97144.69
2022-10-02T02:24:52.389Z,97153.38
2022-10-02T02:27:24.845Z,97156.00
2022-10-02T02:29:56.970Z,97146.41
2022-10-02T02:32:29.354Z,97152.44
2022-10-02T02:35:04.724Z,97148.09
2022-10-02T02:37:35.407Z,97155.81
2022-10-02T02:40:07.343Z,97149.88
2022-10-02T02:42:41.346Z,97152.44
2022-10-02T02:45:18.887Z,97156.78
2022-10-02T02:47:50.731Z,97155.19
2022-10-02T02:50:26.726Z,97149.97
2022-10-02T02:52:59.391Z,97146.41
2022-10-02T02:55:32.853Z,97149.81
2022-10-02T02:58:07.934Z,97148.72
2022-10-02T03:00:34.626Z,97147.16
2022-10-02T03:03:01.443Z,97142.81
2022-10-02T03:05:29.624Z,97148.84
2022-10-02T03:08:01.247Z,97138.34
2022-10-02T03:10:56.278Z,97140.91
2022-10-02T03:13:25.813Z,97142.72
2022-10-02T03:16:01.314Z,97141.63
2022-10-02T03:18:49.709Z,97137.19
2022-10-02T03:21:26.208Z,97144.59
2022-10-02T03:24:05.130Z,97142.59
2022-10-02T03:26:47.141Z,97154.84
2022-10-02T03:29:28.850Z,97154.00
2022-10-02T03:31:56.722Z,97157.50
2022-10-02T03:34:24.359Z,97150.28
2022-10-02T03:36:50.993Z,97151.38
2022-10-02T03:39:25.079Z,97155.56
2022-10-02T03:41:53.281Z,97154.63
2022-10-02T03:44:20.292Z,97144.88
2022-10-02T03:46:46.978Z,97145.63
2022-10-02T03:49:13.617Z,97142.88
2022-10-02T03:51:40.241Z,97144.31
2022-10-02T03:54:15.549Z,97145.28
2022-10-02T03:56:52.018Z,97144.19
2022-10-02T03:59:33.605Z,97145.03
2022-10-02T04:02:04.977Z,97142.53
2022-10-02T04:04:42.655Z,97139.75
2022-10-02T04:07:17.963Z,97138.06
2022-10-02T04:09:52.142Z,97138.81
2022-10-02T04:12:23.707Z,97135.44
2022-10-02T04:14:58.094Z,97130.38
2022-10-02T04:17:37.357Z,97142.63
2022-10-02T04:20:12.285Z,97143.59
2022-10-02T04:22:54.862Z,97140.13
2022-10-02T04:25:25.317Z,97141.06
2022-10-02T04:28:01.273Z,97142.03
2022-10-02T04:30:30.141Z,97154.41
2022-10-02T04:33:24.091Z,97153.56
2022-10-02T04:36:12.537Z,97148.28
2022-10-02T04:39:03.623Z,97154.50
2022-10-02T04:41:30.118Z,97146.69
2022-10-02T04:44:02.415Z,97145.72
2022-10-02T04:46:55.118Z,97141.19
2022-10-02T04:49:33.504Z,97136.97
2022-10-02T04:52:33.923Z,97149.56
2022-10-02T04:55:28.481Z,97138.16
2022-10-02T04:58:01.181Z,97147.03
2022-10-02T05:00:36.365Z,97143.44
2022-10-02T05:03:31.199Z,97137.31
2022-10-02T05:06:25.541Z,97148.59
2022-10-02T05:09:16.041Z,97153.88
2022-10-02T05:11:42.534Z,97148.09
2022-10-02T05:14:27.397Z,97158.66
2022-10-02T05:17:21.538Z,97157.72
2022-10-02T05:19:53.918Z,97157.72
2022-10-02T05:22:33.925Z,97169.75
2022-10-02T05:25:15.516Z,97169.88
2022-10-02T05:28:08.170Z,97163.75
2022-10-02T05:31:04.159Z,97165.66
2022-10-02T05:33:48.379Z,97170.28
2022-10-02T05:36:38.296Z,97164.03
2022-10-02T05:39:22.291Z,97164.91
2022-10-02T05:41:54.026Z,97167.34
2022-10-02T05:44:27.115Z,97159.72
2022-10-02T05:47:18.165Z,97163.31
2022-10-02T05:49:58.242Z,97167.75
2022-10-02T05:52:38.000Z,97164.25
2022-10-02T05:55:20.713Z,97164.38
2022-10-02T05:57:54.926Z,97164.25
2022-10-02T06:00:27.530Z,97158.47
2022-10-02T06:03:12.707Z,97155.81
2022-10-02T06:05:55.428Z,97156.66
2022-10-02T06:08:34.275Z,97167.16
2022-10-02T06:11:07.887Z,97172.31
2022-10-02T06:13:46.597Z,97166.06
2022-10-02T06:16:32.632Z,97174.97
2022-10-02T06:19:14.471Z,97169.88
2022-10-02T06:21:52.146Z,97174.97
2022-10-02T06:24:25.309Z,97171.34
2022-10-02T06:27:01.055Z,97178.22
2022-10-02T06:29:34.592Z,97186.13
2022-10-02T06:32:16.615Z,97186.25
2022-10-02T06:34:47.763Z,97190.69
2022-10-02T06:37:28.665Z,97182.44
2022-10-02T06:40:20.097Z,97186.03
2022-10-02T06:43:12.011Z,97199.25
2022-10-02T06:45:50.122Z,97188.78
2022-10-02T06:48:38.538Z,97198.50
2022-10-02T06:51:50.231Z,97198.22
2022-10-02T06:54:23.016Z,97196.06
2022-10-02T06:57:27.283Z,97195.00
2022-10-02T07:00:16.314Z,97186.97
2022-10-02T07:03:09.097Z,97193.81
2022-10-02T07:05:43.195Z,97195.50
2022-10-02T07:08:19.416Z,97198.03
2022-10-02T07:11:23.518Z,97191.91
2022-10-02T07:14:28.029Z,97210.19
2022-10-02T07:17:17.472Z,97202.28
2022-10-02T07:20:03.167Z,97216.34
2022-10-02T07:22:45.098Z,97212.72
2022-10-02T07:25:30.270Z,97205.63
2022-10-02T07:28:13.043Z,97206.13
2022-10-02T07:31:00.722Z,97203.88
2022-10-02T07:33:36.275Z,97201.25
2022-10-02T07:36:10.946Z,97209.56
2022-10-02T07:39:22.509Z,97203.09
2022-10-02T07:42:00.803Z,97205.28
2022-10-02T07:44:46.452Z,97212.38
2022-10-02T07:47:27.917Z,97217.41
2022-10-02T07:50:09.373Z,97225.16
2022-10-02T07:52:42.428Z,97234.50
2022-10-02T07:55:24.145Z,97224.59
2022-10-02T07:58:03.143Z,97220.53
2022-10-02T08:00:40.445Z,97227.41
2022-10-02T08:03:20.131Z,97223.06
2022-10-02T08:05:58.196Z,97213.22
2022-10-02T08:08:47.290Z,97213.81
2022-10-02T08:11:29.382Z,97218.25
2022-10-02T08:14:11.450Z,97219.75
2022-10-02T08:16:52.674Z,97226.47
2022-10-02T08:19:43.722Z,97234.31
2022-10-02T08:22:18.378Z,97232.25
2022-10-02T08:24:53.879Z,97239.94
2022-10-02T08:27:35.889Z,97244.94
2022-10-02T08:30:06.528Z,97244.84
2022-10-02T08:32:36.360Z,97251.09
2022-10-02T08:35:15.490Z,97251.31
2022-10-02T08:38:10.189Z,97260.25
2022-10-02T08:40:55.016Z,97259.13
2022-10-02T08:43:40.305Z,97250.91
2022-10-02T08:46:29.089Z,97250.91
2022-10-02T08:49:19.763Z,97235.84
2022-10-02T08:52:17.041Z,97237.28
2022-10-02T08:55:01.187Z,97243.38
2022-10-02T08:57:47.606Z,97235.53
2022-10-02T09:00:22.824Z,97248.16
2022-10-02T09:03:04.683Z,97239.69
2022-10-02T09:05:53.158Z,97235.38
2022-10-02T09:08:40.700Z,97242.34
2022-10-02T09:11:45.235Z,97244.03
2022-10-02T09:14:37.347Z,97233.38
2022-10-02T09:17:30.647Z,97244.03
2022-10-02T09:20:34.580Z,97249.13
2022-10-02T09:23:34.853Z,97244.03
2022-10-02T09:26:15.113Z,97246.06
2022-10-02T09:29:19.499Z,97239.34
2022-10-02T09:32:17.390Z,97230.19
2022-10-02T09:35:06.822Z,97226.38
2022-10-02T09:38:05.526Z,97211.22
2022-10-02T09:41:01.557Z,97215.94
2022-10-02T09:43:51.927Z,97212.09
2022-10-02T09:46:55.921Z,97224.88
2022-10-02T09:49:46.669Z,97216.09
2022-10-02T09:52:59.328Z,97226.09
2022-10-02T09:56:10.739Z,97225.41
2022-10-02T09:59:02.067Z,97228.91
2022-10-02T10:01:31.441Z,97232.41
2022-10-02T10:04:33.802Z,97235.81
2022-10-02T10:07:35.078Z,97246.50
2022-10-02T10:10:25.637Z,97240.97
2022-10-02T10:13:22.695Z,97238.22
2022-10-02T10:16:22.291Z,97237.97
2022-10-02T10:19:16.493Z,97239.44
2022-10-02T10:22:01.183Z,97243.03
2022-10-02T10:24:58.070Z,97243.50
2022-10-02T10:27:36.520Z,97245.06
2022-10-02T10:30:50.551Z,97249.91
2022-10-02T10:33:40.014Z,97251.44
2022-10-02T10:37:02.747Z,97256.88
2022-10-02T10:40:10.831Z,97263.59
2022-10-02T10:43:06.408Z,97262.88
2022-10-02T10:46:03.961Z,97253.38
2022-10-02T10:48:51.981Z,97265.91
2022-10-02T10:51:21.214Z,97265.81
2022-10-02T10:54:14.261Z,97265.94
2022-10-02T10:56:55.328Z,97260.00
2022-10-02T10:59:50.573Z,97262.63
2022-10-02T11:02:39.179Z,97260.63
2022-10-02T11:05:21.597Z,97276.72
2022-10-02T11:08:06.136Z,97274.75
2022-10-02T11:10:54.934Z,97284.88
2022-10-02T11:13:27.274Z,97279.94
2022-10-02T11:15:59.889Z,97277.16
2022-10-02T11:18:47.114Z,97275.97
2022-10-02T11:21:32.460Z,97274.31
2022-10-02T11:24:07.842Z,97277.94
2022-10-02T11:27:08.348Z,97272.47
2022-10-02T11:29:51.173Z,97286.00
2022-10-02T11:32:51.786Z,97280.28
2022-10-02T11:35:28.639Z,97276.03
2022-10-02T11:38:29.625Z,97282.78
2022-10-02T11:41:09.996Z,97278.31
2022-10-02T11:44:05.515Z,97280.00
2022-10-02T11:46:41.911Z,97276.72
2022-10-02T11:49:46.198Z,97281.88
2022-10-02T11:52:49.716Z,97283.66
2022-10-02T11:56:07.731Z,97280.91
2022-10-02T11:59:07.925Z,97275.88
2022-10-02T12:01:47.464Z,97278.84
2022-10-02T12:04:40.768Z,97281.75
2022-10-02T12:07:16.257Z,97279.81
2022-10-02T12:10:13.965Z,97264.53
2022-10-02T12:13:03.674Z,97274.38
2022-10-02T12:15:36.185Z,97278.25
2022-10-02T12:18:27.624Z,97272.94
2022-10-02T12:21:27.111Z,97273.06
2022-10-02T12:24:38.302Z,97277.03
2022-10-02T12:27:15.905Z,97283.41
2022-10-02T12:30:00.435Z,97275.28
2022-10-02T12:32:37.482Z,97278.66
2022-10-02T12:35:27.609Z,97287.69
2022-10-02T12:38:01.481Z,97291.88
2022-10-02T12:40:46.039Z,97280.69
2022-10-02T12:43:54.619Z,97288.97
2022-10-02T12:46:36.110Z,97281.16
2022-10-02T12:49:20.511Z,97291.38
2022-10-02T12:52:30.635Z,97286.81
2022-10-02T12:55:18.620Z,97298.34
2022-10-02T12:58:11.299Z,97302.94
2022-10-02T13:00:58.799Z,97297.53
2022-10-02T13:03:31.175Z,97299.22
2022-10-02T13:06:19.249Z,97292.59
2022-10-02T13:09:03.098Z,97303.06
2022-10-02T13:11:36.007Z,97292.84
2022-10-02T13:14:21.565Z,97291.00
2022-10-02T13:16:56.937Z,97298.13
2022-10-02T13:19:40.225Z,97293.19
2022-10-02T13:22:32.706Z,97302.69
2022-10-02T13:25:17.359Z,97304.16
2022-10-02T13:27:52.901Z,97290.78
2022-10-02T13:30:24.105Z,97292.00
2022-10-02T13:33:05.915Z,97299.69
2022-10-02T13:36:08.752Z,97301.13
2022-10-02T13:38:47.264Z,97303.91
2022-10-02T13:41:28.886Z,97299.34
2022-10-02T13:44:14.263Z,97303.06
2022-10-02T13:47:02.705Z,97311.63
2022-10-02T13:49:41.229Z,97304.50
2022-10-02T13:52:22.748Z,97302.81
2022-10-02T13:55:02.412Z,97301.75
2022-10-02T13:57:34.862Z,97296.94
2022-10-02T14:00:27.451Z,97300.91
2022-10-02T14:03:42.451Z,97306.44
2022-10-02T14:06:25.037Z,97306.81
2022-10-02T14:09:03.586Z,97311.38
2022-10-02T14:11:56.941Z,97313.19
2022-10-02T14:14:43.622Z,97317.41
2022-10-02T14:17:28.769Z,97319.00
2022-10-02T14:20:00.776Z,97317.28
2022-10-02T14:22:43.226Z,97324.16
2022-10-02T14:25:27.517Z,97320.44
2022-10-02T14:28:25.632Z,97325.22
2022-10-02T14:30:59.881Z,97332.47
2022-10-02T14:33:47.745Z,97332.59
2022-10-02T14:36:41.179Z,97336.94
2022-10-02T14:39:23.019Z,97333.44
2022-10-02T14:42:17.766Z,97341.97
2022-10-02T14:44:58.335Z,97337.44
2022-10-02T14:47:43.185Z,97337.06
2022-10-02T14:50:27.902Z,97338.16
2022-10-02T14:53:05.078Z,97330.91
2022-10-02T14:55:50.040Z,97338.16
2022-10-02T14:58:41.660Z,97341.16
2022-10-02T15:01:22.320Z,97339.81
2022-10-02T15:04:27.778Z,97336.81
2022-10-02T15:07:01.571Z,97339.47
2022-10-02T15:09:49.290Z,97338.03
2022-10-02T15:12:24.207Z,97337.06
2022-10-02T15:15:13.043Z,97330.66
2022-10-02T15:18:00.203Z,97334.88
2022-10-02T15:21:00.834Z,97327.50
2022-10-02T15:23:33.324Z,97332.19
2022-10-02T15:26:31.436Z,97337.13
2022-10-02T15:29:13.164Z,97344.00
2022-10-02T15:32:20.624Z,97351.94
2022-10-02T15:35:43.856Z,97351.31
2022-10-02T15:38:22.735Z,97353.97
2022-10-02T15:41:01.217Z,97361.19
2022-10-02T15:43:51.825Z,97355.19
2022-10-02T15:46:50.698Z,97357.22
2022-10-02T15:49:56.425Z,97358.72
2022-10-02T15:52:34.790Z,97357.97
2022-10-02T15:55:23.911Z,97357.03
2022-10-02T15:58:02.551Z,97364.38
2022-10-02T16:00:56.755Z,97363.75
2022-10-02T16:03:46.293Z,97369.19
2022-10-02T16:06:32.517Z,97372.41
2022-10-02T16:09:25.487Z,97376.22
2022-10-02T16:12:03.838Z,97385.97
2022-10-02T16:14:50.791Z,97389.69
2022-10-02T16:17:42.639Z,97389.28
2022-10-02T16:20:23.081Z,97381.06
2022-10-02T16:22:58.359Z,97392.84
2022-10-02T16:25:34.579Z,97386.91
2022-10-02T16:28:39.449Z,97388.44
2022-10-02T16:31:34.132Z,97392.88
2022-10-02T16:34:11.007Z,97386.03
2022-10-02T16:37:12.626Z,97391.91
2022-10-02T16:39:49.501Z,97393.59
2022-10-02T16:42:27.090Z,97400.81
2022-10-02T16:45:35.731Z,97402.97
2022-10-02T16:48:07.404Z,97412.72
2022-10-02T16:51:05.387Z,97405.34
2022-10-02T16:53:56.561Z,97416.69
2022-10-02T16:56:34.461Z,97418.72
2022-10-02T16:59:12.759Z,97421.91
2022-10-02T17:02:13.174Z,97439.91
2022-10-02T17:04:57.976Z,97441.53
2022-10-02T17:07:59.835Z,97447.22
2022-10-02T17:10:29.455Z,97449.09
2022-10-02T17:13:33.241Z,97455.72
2022-10-02T17:16:18.822Z,97468.81
2022-10-02T17:18:57.315Z,97475.28
2022-10-02T17:21:26.803Z,97482.53
2022-10-02T17:24:20.318Z,97488.31
2022-10-02T17:26:53.610Z,97491.00
2022-10-02T17:29:27.839Z,97494.59
2022-10-02T17:31:58.692Z,97502.25
2022-10-02T17:34:50.438Z,97499.03
2022-10-02T17:37:17.376Z,97505.09
2022-10-02T17:40:02.566Z,97516.00
2022-10-02T17:42:41.226Z,97524.72
2022-10-02T17:45:32.352Z,97528.09
2022-10-02T17:48:07.799Z,97529.09
2022-10-02T17:50:34.298Z,97532.09
2022-10-02T17:53:44.602Z,97546.03
2022-10-02T17:57:01.949Z,97546.97
2022-10-02T17:59:28.922Z,97552.50
2022-10-02T18:02:02.161Z,97557.75
2022-10-02T18:04:46.593Z,97565.56
2022-10-02T18:07:27.962Z,97571.69
2022-10-02T18:10:09.770Z,97578.94
2022-10-02T18:13:01.031Z,97588.88
2022-10-02T18:15:34.705Z,97583.59
2022-10-02T18:18:17.963Z,97590.84
2022-10-02T18:20:50.797Z,97591.47
2022-10-02T18:23:38.506Z,97593.81
2022-10-02T18:26:23.179Z,97602.13
2022-10-02T18:29:02.025Z,97610.97
2022-10-02T18:31:55.211Z,97605.72
2022-10-02T18:34:44.454Z,97616.69
2022-10-02T18:37:42.262Z,97617.91
2022-10-02T18:40:26.815Z,97619.09
2022-10-02T18:43:18.511Z,97618.91
2022-10-02T18:46:10.104Z,97625.00
2022-10-02T18:48:42.570Z,97622.56
2022-10-02T18:51:31.858Z,97631.22
2022-10-02T18:54:27.757Z,97636.34
2022-10-02T18:57:09.731Z,97639.97
2022-10-02T18:59:39.198Z,97641.00
2022-10-02T19:02:14.814Z,97642.13
2022-10-02T19:04:48.142Z,97643.19
2022-10-02T19:07:20.477Z,97643.19
2022-10-02T19:09:47.340Z,97643.63
2022-10-02T19:12:23.379Z,97658.13
2022-10-02T19:14:56.058Z,97655.88
2022-10-02T19:17:29.673Z,97663.38
2022-10-02T19:19:57.820Z,97670.38
2022-10-02T19:22:26.823Z,97668.59
2022-10-02T19:24:55.926Z,97670.53
2022-10-02T19:27:31.078Z,97681.31
2022-10-02T19:30:00.607Z,97674.94
2022-10-02T19:32:34.170Z,97679.16
2022-10-02T19:35:07.557Z,97677.47
2022-10-02T19:37:41.523Z,97674.75
2022-10-02T19:40:15.985Z,97684.81
2022-10-02T19:42:52.896Z,97695.75
2022-10-02T19:45:27.488Z,97693.41
2022-10-02T19:48:00.280Z,97687.34
2022-10-02T19:50:36.256Z,97695.25
2022-10-02T19:53:06.891Z,97694.50
2022-10-02T19:55:40.745Z,97698.13
2022-10-02T19:58:20.083Z,97698.72
2022-10-02T20:00:50.666Z,97710.88
2022-10-02T20:03:21.282Z,97701.44
2022-10-02T20:05:52.992Z,97703.16
2022-10-02T20:08:27.932Z,97702.56
2022-10-02T20:11:26.830Z,97707.16
2022-10-02T20:14:01.435Z,97719.41
2022-10-02T20:16:46.645Z,97712.44
2022-10-02T20:19:24.860Z,97727.28
2022-10-02T20:21:57.934Z,97729.00
2022-10-02T20:25:03.779Z,97730.59
2022-10-02T20:27:59.412Z,97735.00
2022-10-02T20:30:32.497Z,97738.44
2022-10-02T20:32:59.041Z,97734.03
2022-10-02T20:35:34.961Z,97739.09
2022-10-02T20:38:13.056Z,97745.22
2022-10-02T20:40:45.614Z,97745.72
2022-10-02T20:43:21.951Z,97749.22
2022-10-02T20:46:06.657Z,97749.81
2022-10-02T20:49:08.920Z,97756.28
2022-10-02T20:51:52.764Z,97755.75
2022-10-02T20:54:31.667Z,97762.13
2022-10-02T20:57:22.025Z,97763.75
2022-10-02T21:00:20.313Z,97762.72
2022-10-02T21:03:17.505Z,97767.47
2022-10-02T21:06:08.115Z,97767.06
2022-10-02T21:09:02.851Z,97768.66
2022-10-02T21:11:38.448Z,97773.78
2022-10-02T21:14:26.845Z,97767.75
2022-10-02T21:17:26.571Z,97780.31
2022-10-02T21:20:14.140Z,97786.72
2022-10-02T21:23:17.705Z,97786.34
2022-10-02T21:26:16.835Z,97783.28
2022-10-02T21:28:46.174Z,97781.34
2022-10-02T21:31:43.654Z,97789.66
2022-10-02T21:34:36.769Z,97789.38
2022-10-02T21:37:35.642Z,97807.69
2022-10-02T21:40:57.362Z,97805.53
2022-10-02T21:43:45.647Z,97812.97
2022-10-02T21:46:48.577Z,97822.34
2022-10-02T21:49:36.234Z,97827.81
2022-10-02T21:52:27.586Z,97837.09
2022-10-02T21:55:00.012Z,97837.72
2022-10-02T21:57:45.145Z,97841.03
2022-10-02T22:00:29.207Z,97841.72
2022-10-02T22:03:10.178Z,97836.28
2022-10-02T22:06:06.542Z,97846.81
2022-10-02T22:08:51.616Z,97845.81
2022-10-02T22:11:47.103Z,97848.78
2022-10-02T22:14:23.440Z,97851.56
2022-10-02T22:17:12.215Z,97856.22
2022-10-02T22:20:21.134Z,97850.25
2022-10-02T22:22:53.369Z,97854.94
2022-10-02T22:26:05.149Z,97865.78
2022-10-02T22:28:42.087Z,97862.44
2022-10-02T22:31:25.997Z,97866.34
2022-10-02T22:34:19.161Z,97857.72
2022-10-02T22:37:21.167Z,97857.97
2022-10-02T22:40:00.538Z,97860.44
2022-10-02T22:43:00.322Z,97864.56
2022-10-02T22:45:47.282Z,97866.53
2022-10-02T22:48:25.885Z,97867.72
2022-10-02T22:50:58.170Z,97870.56
2022-10-02T22:53:41.083Z,97883.19
2022-10-02T22:56:39.301Z,97881.91
2022-10-02T22:59:14.323Z,97879.66
2022-10-02T23:01:44.342Z,97880.34
2022-10-02T23:04:25.930Z,97882.19
2022-10-02T23:07:02.234Z,97883.28
2022-10-02T23:09:57.720Z,97879.00
2022-10-02T23:12:39.460Z,97881.84
2022-10-02T23:15:49.624Z,97889.75
2022-10-02T23:18:27.065Z,97890.78
2022-10-02T23:21:18.079Z,97899.91
2022-10-02T23:23:50.719Z,97900.31
2022-10-02T23:26:41.159Z,97902.16
2022-10-02T23:29:39.233Z,97906.00
2022-10-02T23:32:31.561Z,97911.09
2022-10-02T23:35:29.465Z,97911.25
2022-10-02T23:38:20.799Z,97908.56
2022-10-02T23:41:18.069Z,97910.19
2022-10-02T23:43:54.818Z,97914.84
2022-10-02T23:46:29.787Z,97910.59
2022-10-02T23:48:56.670Z,97906.03
2022-10-02T23:51:35.282Z,97920.03
2022-10-02T23:54:13.299Z,97921.94
2022-10-02T23:57:04.483Z,97917.78
2022-10-02T23:59:52.757Z,97916.69
